Time;durP1;ratioP1;P1;durP2;ratioP2;P2;SDS_P1;SDS_P2;PMS_P1;PMS_P2;Temp;Humidity;BMP_temperature;BMP_pressure;BME280_temperature;BME280_humidity;BME280_pressure;Samples;Min_cycle;Max_cycle;Signal;HPM_P1;HPM_P2
2022/04/18 00:00:19;;;;;;;22.97;16.30;;;;;;;;;;753929;185;919304;-61
2022/04/18 00:02:45;;;;;;;20.25;14.80;;;;;;;;;;747218;185;919808;-61
2022/04/18 00:05:11;;;;;;;22.75;15.18;;;;;;;;;;754345;184;918839;-61
2022/04/18 00:07:36;;;;;;;26.33;14.20;;;;;;;;;;760130;183;918710;-61
2022/04/18 00:10:02;;;;;;;22.67;15.57;;;;;;;;;;749508;185;919164;-61
2022/04/18 00:12:29;;;;;;;23.93;14.60;;;;;;;;;;754479;183;1022181;-61
2022/04/18 00:14:54;;;;;;;22.30;15.20;;;;;;;;;;764814;183;919601;-61
2022/04/18 00:17:20;;;;;;;22.20;13.98;;;;;;;;;;758845;184;919325;-61
2022/04/18 00:19:46;;;;;;;20.17;15.60;;;;;;;;;;751642;184;918985;-62
2022/04/18 00:22:12;;;;;;;23.33;17.33;;;;;;;;;;755902;184;919154;-61
2022/04/18 00:24:37;;;;;;;23.67;16.40;;;;;;;;;;753116;187;1022340;-62
2022/04/18 00:27:04;;;;;;;21.93;16.50;;;;;;;;;;752734;182;919257;-62
2022/04/18 00:29:29;;;;;;;30.17;19.00;;;;;;;;;;762981;183;919159;-61
2022/04/18 00:31:55;;;;;;;24.13;17.07;;;;;;;;;;759819;184;918876;-61
2022/04/18 00:34:21;;;;;;;22.30;15.37;;;;;;;;;;753321;184;919124;-61
2022/04/18 00:36:47;;;;;;;20.23;15.50;;;;;;;;;;753110;184;918451;-63
2022/04/18 00:39:14;;;;;;;23.60;15.60;;;;;;;;;;763193;184;918221;-61
2022/04/18 00:41:39;;;;;;;22.07;14.83;;;;;;;;;;758631;183;919039;-61
2022/04/18 00:44:05;;;;;;;23.38;15.82;;;;;;;;;;758747;184;1020733;-61
2022/04/18 00:46:31;;;;;;;19.40;14.93;;;;;;;;;;757066;183;920252;-61
2022/04/18 00:48:57;;;;;;;20.50;14.70;;;;;;;;;;749630;187;916463;-60
2022/04/18 00:51:23;;;;;;;22.83;17.47;;;;;;;;;;750874;184;919040;-61
2022/04/18 00:53:49;;;;;;;24.23;15.60;;;;;;;;;;749111;183;922053;-62
2022/04/18 00:56:15;;;;;;;20.80;15.83;;;;;;;;;;756653;184;1027076;-61
2022/04/18 00:58:41;;;;;;;21.83;15.77;;;;;;;;;;753928;184;921580;-61
2022/04/18 01:01:06;;;;;;;19.70;15.27;;;;;;;;;;756385;183;916333;-62
2022/04/18 01:03:32;;;;;;;20.60;15.10;;;;;;;;;;758544;184;915931;-61
2022/04/18 01:05:58;;;;;;;21.33;16.57;;;;;;;;;;756617;183;917612;-61
2022/04/18 01:08:25;;;;;;;24.27;15.90;;;;;;;;;;745250;186;911800;-61
2022/04/18 01:10:49;;;;;;;21.60;15.43;;;;;;;;;;761535;183;919281;-61
2022/04/18 01:13:15;;;;;;;23.30;15.33;;;;;;;;;;755324;184;918428;-61
2022/04/18 01:15:41;;;;;;;20.43;15.00;;;;;;;;;;759043;183;919586;-61
2022/04/18 01:18:07;;;;;;;19.60;14.63;;;;;;;;;;754155;184;919920;-61
2022/04/18 01:20:35;;;;;;;21.70;15.53;;;;;;;;;;758700;184;919601;-61
2022/04/18 01:23:00;;;;;;;29.50;15.50;;;;;;;;;;753659;184;921368;-61
2022/04/18 01:30:30;;;;;;;23.77;16.73;;;;;;;;;;763291;183;911216;-61
2022/04/18 01:32:55;;;;;;;21.60;15.80;;;;;;;;;;751708;184;1235926;-60
2022/04/18 01:35:21;;;;;;;28.07;16.60;;;;;;;;;;753397;184;1030407;-61
2022/04/18 01:37:47;;;;;;;26.10;17.50;;;;;;;;;;764643;183;914448;-61
2022/04/18 01:40:13;;;;;;;21.17;15.00;;;;;;;;;;757119;181;985961;-59
2022/04/18 01:42:39;;;;;;;20.93;14.93;;;;;;;;;;759522;183;919070;-59
2022/04/18 01:45:05;;;;;;;22.20;16.92;;;;;;;;;;761013;184;918324;-60
2022/04/18 01:47:31;;;;;;;20.90;15.60;;;;;;;;;;754764;184;919411;-61
2022/04/18 01:49:57;;;;;;;21.60;16.13;;;;;;;;;;754143;183;919465;-60
2022/04/18 01:52:23;;;;;;;26.93;17.50;;;;;;;;;;754166;183;919553;-60
2022/04/18 01:54:49;;;;;;;24.83;17.40;;;;;;;;;;762277;183;914974;-60
2022/04/18 01:57:14;;;;;;;21.33;15.60;;;;;;;;;;755374;183;920754;-61
2022/04/18 01:59:42;;;;;;;24.02;16.83;;;;;;;;;;757416;183;913370;-60
2022/04/18 02:02:06;;;;;;;20.57;16.20;;;;;;;;;;762955;184;916857;-63
2022/04/18 02:04:32;;;;;;;25.53;16.50;;;;;;;;;;757095;183;916766;-60
2022/04/18 02:06:58;;;;;;;20.97;14.43;;;;;;;;;;755491;183;917883;-60
2022/04/18 02:09:24;;;;;;;19.27;14.50;;;;;;;;;;759099;184;1020876;-59
2022/04/18 02:11:49;;;;;;;22.77;15.47;;;;;;;;;;753904;184;919693;-60
2022/04/18 02:14:15;;;;;;;20.13;15.60;;;;;;;;;;753414;184;918998;-61
2022/04/18 02:16:41;;;;;;;22.53;17.77;;;;;;;;;;754184;184;920232;-60
2022/04/18 02:19:07;;;;;;;19.37;14.33;;;;;;;;;;762315;183;916566;-61
2022/04/18 02:21:33;;;;;;;21.97;16.40;;;;;;;;;;757447;183;910717;-61
2022/04/18 02:23:59;;;;;;;21.10;15.17;;;;;;;;;;757512;183;910615;-60
2022/04/18 02:26:25;;;;;;;20.23;16.10;;;;;;;;;;762188;183;916085;-60
2022/04/18 02:28:50;;;;;;;27.83;17.73;;;;;;;;;;754420;184;916177;-60
2022/04/18 02:31:16;;;;;;;23.03;15.80;;;;;;;;;;755712;183;916349;-60
2022/04/18 02:33:42;;;;;;;25.63;18.13;;;;;;;;;;758070;184;915284;-59
2022/04/18 02:36:08;;;;;;;24.47;17.10;;;;;;;;;;748496;184;916382;-60
2022/04/18 02:38:34;;;;;;;21.30;16.00;;;;;;;;;;762400;183;920161;-60
2022/04/18 02:41:00;;;;;;;32.75;17.02;;;;;;;;;;767566;183;919396;-60
2022/04/18 02:43:26;;;;;;;24.93;18.00;;;;;;;;;;763970;183;919243;-60
2022/04/18 02:45:52;;;;;;;26.07;16.27;;;;;;;;;;760482;183;1015290;-60
2022/04/18 02:48:18;;;;;;;23.17;17.23;;;;;;;;;;759932;182;919333;-60
2022/04/18 02:50:44;;;;;;;24.70;17.70;;;;;;;;;;764755;183;919212;-60
2022/04/18 02:53:10;;;;;;;25.20;16.67;;;;;;;;;;757770;183;922001;-60
2022/04/18 02:55:35;;;;;;;23.53;16.70;;;;;;;;;;752668;183;919125;-60
2022/04/18 02:58:01;;;;;;;23.93;17.53;;;;;;;;;;755467;184;918131;-60
2022/04/18 03:00:27;;;;;;;21.77;17.70;;;;;;;;;;749791;184;928441;-60
2022/04/18 03:02:53;;;;;;;21.20;16.47;;;;;;;;;;757625;184;919194;-60
2022/04/18 03:05:19;;;;;;;21.60;16.60;;;;;;;;;;763227;184;921630;-60
2022/04/18 03:07:45;;;;;;;27.03;17.17;;;;;;;;;;758479;184;918235;-60
2022/04/18 03:10:11;;;;;;;22.43;17.97;;;;;;;;;;744924;184;920052;-60
2022/04/18 03:12:36;;;;;;;25.50;17.30;;;;;;;;;;754479;184;919287;-60
2022/04/18 03:15:03;;;;;;;24.83;17.60;;;;;;;;;;761650;184;918785;-61
2022/04/18 03:17:28;;;;;;;26.80;18.93;;;;;;;;;;762038;183;919642;-60
2022/04/18 03:19:54;;;;;;;24.10;17.87;;;;;;;;;;758507;184;919130;-60
2022/04/18 03:22:20;;;;;;;24.87;18.27;;;;;;;;;;764029;184;918128;-60
2022/04/18 03:24:46;;;;;;;34.27;18.90;;;;;;;;;;757470;183;920465;-61
2022/04/18 03:27:12;;;;;;;26.33;19.60;;;;;;;;;;758927;183;919370;-60
2022/04/18 03:29:38;;;;;;;23.00;18.40;;;;;;;;;;752847;185;918965;-60
2022/04/18 03:32:05;;;;;;;24.42;18.25;;;;;;;;;;752743;184;920868;-62
2022/04/18 03:34:31;;;;;;;23.83;18.13;;;;;;;;;;762648;184;619744;-60
2022/04/18 03:42:00;;;;;;;28.07;17.47;;;;;;;;;;749316;185;920018;-60
2022/04/18 03:44:25;;;;;;;28.67;17.50;;;;;;;;;;750275;184;919497;-61
2022/04/18 03:46:51;;;;;;;28.60;18.63;;;;;;;;;;751629;184;917571;-61
2022/04/18 03:49:18;;;;;;;21.17;15.37;;;;;;;;;;753167;185;918168;-62
2022/04/18 03:51:43;;;;;;;24.77;18.60;;;;;;;;;;752098;183;918425;-61
2022/04/18 03:54:09;;;;;;;22.90;17.63;;;;;;;;;;750757;184;1020904;-61
2022/04/18 03:56:35;;;;;;;21.90;16.67;;;;;;;;;;756880;183;916773;-61
2022/04/18 03:59:01;;;;;;;24.63;17.60;;;;;;;;;;755694;183;911210;-61
2022/04/18 04:01:26;;;;;;;26.57;18.67;;;;;;;;;;756784;182;919270;-60
2022/04/18 04:03:52;;;;;;;23.38;16.98;;;;;;;;;;761409;183;920019;-61
2022/04/18 04:06:18;;;;;;;21.70;17.67;;;;;;;;;;757554;183;921974;-61
2022/04/18 04:08:44;;;;;;;27.10;17.60;;;;;;;;;;755780;184;1020828;-61
2022/04/18 04:11:11;;;;;;;20.67;16.47;;;;;;;;;;758052;183;917971;-61
2022/04/18 04:13:36;;;;;;;20.30;17.77;;;;;;;;;;750373;187;919695;-61
2022/04/18 04:16:01;;;;;;;22.58;17.83;;;;;;;;;;755420;183;919129;-62
2022/04/18 04:18:27;;;;;;;30.60;18.87;;;;;;;;;;761108;183;920040;-61
2022/04/18 04:20:53;;;;;;;24.63;17.33;;;;;;;;;;759153;184;916875;-61
2022/04/18 04:23:19;;;;;;;23.12;17.83;;;;;;;;;;753831;183;921109;-61
2022/04/18 04:25:45;;;;;;;26.30;19.93;;;;;;;;;;758471;184;1020759;-61
2022/04/18 04:28:11;;;;;;;26.83;18.07;;;;;;;;;;761317;183;916814;-61
2022/04/18 04:30:37;;;;;;;25.05;16.95;;;;;;;;;;755119;183;1000431;-61
2022/04/18 04:33:02;;;;;;;24.67;16.90;;;;;;;;;;757441;183;921184;-61
2022/04/18 04:35:29;;;;;;;25.73;17.90;;;;;;;;;;758821;184;920108;-60
2022/04/18 04:37:55;;;;;;;25.50;17.87;;;;;;;;;;758840;183;890640;-61
2022/04/18 04:40:21;;;;;;;27.43;17.97;;;;;;;;;;747396;184;913850;-61
2022/04/18 04:42:47;;;;;;;27.85;18.90;;;;;;;;;;754663;183;916561;-62
2022/04/18 04:45:13;;;;;;;24.23;18.87;;;;;;;;;;748670;183;915042;-60
2022/04/18 04:47:39;;;;;;;26.53;21.87;;;;;;;;;;752709;184;918316;-61
2022/04/18 04:50:05;;;;;;;29.57;23.30;;;;;;;;;;756371;184;919613;-61
2022/04/18 04:52:31;;;;;;;34.63;25.57;;;;;;;;;;759974;183;919206;-61
2022/04/18 04:54:57;;;;;;;34.83;24.73;;;;;;;;;;754191;183;926253;-60
2022/04/18 04:57:23;;;;;;;37.87;27.27;;;;;;;;;;752935;184;918957;-62
2022/04/18 04:59:49;;;;;;;40.75;27.98;;;;;;;;;;763462;183;920018;-60
2022/04/18 05:02:16;;;;;;;35.43;27.27;;;;;;;;;;761666;183;919238;-61
2022/04/18 05:04:41;;;;;;;44.93;29.70;;;;;;;;;;758600;183;918971;-61
2022/04/18 05:07:08;;;;;;;43.03;29.42;;;;;;;;;;755838;184;1022343;-62
2022/04/18 05:09:32;;;;;;;38.93;25.97;;;;;;;;;;760969;183;918174;-62
2022/04/18 05:11:58;;;;;;;37.47;26.00;;;;;;;;;;757724;184;921572;-61
2022/04/18 05:14:24;;;;;;;49.33;40.13;;;;;;;;;;756714;183;1021500;-61
2022/04/18 05:16:50;;;;;;;55.30;42.20;;;;;;;;;;765632;183;917331;-61
2022/04/18 05:19:16;;;;;;;32.30;24.57;;;;;;;;;;753046;183;919064;-61
2022/04/18 05:21:42;;;;;;;39.00;26.50;;;;;;;;;;756076;184;920579;-62
2022/04/18 05:24:08;;;;;;;40.67;28.27;;;;;;;;;;760690;184;920029;-62
2022/04/18 05:26:33;;;;;;;181.10;92.00;;;;;;;;;;755482;183;918269;-62
2022/04/18 05:28:59;;;;;;;51.60;32.07;;;;;;;;;;754320;184;922264;-62
2022/04/18 05:31:25;;;;;;;40.97;25.17;;;;;;;;;;755600;183;920987;-62
2022/04/18 05:33:51;;;;;;;32.30;24.43;;;;;;;;;;763427;183;920373;-62
2022/04/18 05:36:17;;;;;;;27.60;22.40;;;;;;;;;;761864;183;919638;-62
2022/04/18 05:38:43;;;;;;;26.97;19.60;;;;;;;;;;755746;183;920412;-62
2022/04/18 05:41:08;;;;;;;35.33;23.40;;;;;;;;;;757389;183;915950;-63
2022/04/18 05:43:34;;;;;;;29.03;21.27;;;;;;;;;;753018;184;916368;-63
2022/04/18 05:46:00;;;;;;;29.93;20.87;;;;;;;;;;750954;183;926616;-62
2022/04/18 05:48:26;;;;;;;28.35;19.70;;;;;;;;;;756443;184;919942;-62
2022/04/18 05:50:52;;;;;;;30.20;21.43;;;;;;;;;;753652;184;920102;-61
2022/04/18 05:53:18;;;;;;;27.33;20.40;;;;;;;;;;757576;184;919604;-62
2022/04/18 05:55:43;;;;;;;31.03;20.03;;;;;;;;;;753822;181;919808;-62
2022/04/18 05:58:09;;;;;;;46.17;31.37;;;;;;;;;;761204;183;921276;-62
2022/04/18 06:00:35;;;;;;;30.40;20.87;;;;;;;;;;751770;183;919522;-62
2022/04/18 06:03:03;;;;;;;24.90;17.47;;;;;;;;;;748013;184;1025048;-63
2022/04/18 06:05:28;;;;;;;22.63;16.47;;;;;;;;;;761645;184;713115;-62
2022/04/18 06:07:54;;;;;;;21.50;17.43;;;;;;;;;;753345;184;915589;-63
2022/04/18 06:10:20;;;;;;;27.80;17.37;;;;;;;;;;759844;183;915187;-62
2022/04/18 06:12:46;;;;;;;49.03;25.90;;;;;;;;;;759704;183;1017680;-62
2022/04/18 06:15:12;;;;;;;27.70;15.93;;;;;;;;;;754668;184;1016214;-64
2022/04/18 06:17:38;;;;;;;22.40;15.35;;;;;;;;;;751674;184;918711;-62
2022/04/18 06:20:04;;;;;;;29.10;19.83;;;;;;;;;;751323;184;919186;-63
2022/04/18 06:22:30;;;;;;;32.47;19.07;;;;;;;;;;759209;182;919352;-64
2022/04/18 06:24:56;;;;;;;34.30;19.00;;;;;;;;;;750119;183;919707;-64
2022/04/18 06:27:22;;;;;;;23.92;15.50;;;;;;;;;;753310;183;949541;-63
2022/04/18 06:29:48;;;;;;;21.53;15.00;;;;;;;;;;762582;182;919578;-64
2022/04/18 06:32:14;;;;;;;31.77;18.23;;;;;;;;;;756113;182;919787;-63
2022/04/18 06:34:40;;;;;;;27.17;16.97;;;;;;;;;;755172;183;918770;-64
2022/04/18 06:37:05;;;;;;;19.20;13.70;;;;;;;;;;763682;184;918891;-64
2022/04/18 06:39:31;;;;;;;23.60;16.33;;;;;;;;;;754356;184;920335;-63
2022/04/18 06:41:57;;;;;;;23.53;16.40;;;;;;;;;;752965;183;1003475;-64
2022/04/18 06:44:23;;;;;;;25.33;16.13;;;;;;;;;;759292;184;918698;-65
2022/04/18 06:46:49;;;;;;;21.90;11.43;;;;;;;;;;756951;184;919058;-63
2022/04/18 06:49:15;;;;;;;22.33;13.47;;;;;;;;;;757592;183;918848;-63
2022/04/18 06:51:41;;;;;;;19.40;12.30;;;;;;;;;;755653;183;1036942;-63
2022/04/18 06:54:06;;;;;;;20.50;14.00;;;;;;;;;;761081;184;918987;-63
2022/04/18 06:59:04;;;;;;;15.43;11.27;;;;;;;;;;755826;184;917222;-64
2022/04/18 07:01:30;;;;;;;23.23;15.43;;;;;;;;;;761642;183;919579;-64
2022/04/18 07:03:56;;;;;;;19.23;15.90;;;;;;;;;;755130;184;978828;-64
2022/04/18 07:06:21;;;;;;;10.60;8.40;;;;;;;;;;755500;181;918144;-64
2022/04/18 07:08:47;;;;;;;17.93;8.90;;;;;;;;;;758722;183;919764;-64
2022/04/18 07:11:13;;;;;;;19.43;12.10;;;;;;;;;;758181;184;918421;-64
2022/04/18 07:13:39;;;;;;;17.87;10.30;;;;;;;;;;754124;183;920934;-63
2022/04/18 07:16:07;;;;;;;18.80;10.50;;;;;;;;;;755085;183;919448;-64
2022/04/18 07:18:31;;;;;;;17.83;11.80;;;;;;;;;;757019;183;919101;-65
2022/04/18 07:20:57;;;;;;;16.30;10.03;;;;;;;;;;754228;183;919272;-64
2022/04/18 07:23:22;;;;;;;9.50;6.50;;;;;;;;;;752853;184;920657;-64
2022/04/18 07:25:48;;;;;;;17.97;10.10;;;;;;;;;;761697;183;759041;-64
2022/04/18 07:28:14;;;;;;;15.30;9.13;;;;;;;;;;755042;184;918072;-64
2022/04/18 07:30:40;;;;;;;38.37;17.70;;;;;;;;;;757048;183;905166;-64
2022/04/18 07:33:06;;;;;;;15.30;10.17;;;;;;;;;;755435;184;919951;-65
2022/04/18 07:35:33;;;;;;;27.00;14.60;;;;;;;;;;759106;184;814844;-65
2022/04/18 07:40:29;;;;;;;12.70;6.43;;;;;;;;;;764294;182;630724;-65
2022/04/18 07:42:55;;;;;;;29.90;15.00;;;;;;;;;;766638;183;619122;-64
2022/04/18 07:45:21;;;;;;;14.43;9.47;;;;;;;;;;755506;184;898142;-65
2022/04/18 07:47:47;;;;;;;30.80;16.17;;;;;;;;;;759338;184;920755;-65
2022/04/18 07:50:13;;;;;;;22.23;12.30;;;;;;;;;;752732;184;918825;-65
2022/04/18 07:52:39;;;;;;;11.82;6.62;;;;;;;;;;759556;183;919551;-64
2022/04/18 07:55:05;;;;;;;15.70;8.00;;;;;;;;;;760685;184;918902;-66
2022/04/18 07:57:32;;;;;;;20.43;7.97;;;;;;;;;;762148;183;918535;-67
2022/04/18 07:59:57;;;;;;;20.00;11.00;;;;;;;;;;765332;183;914592;-66
2022/04/18 08:02:24;;;;;;;50.93;25.83;;;;;;;;;;749334;183;918511;-68
2022/04/18 08:04:49;;;;;;;51.97;21.50;;;;;;;;;;756382;184;918110;-65
2022/04/18 08:07:15;;;;;;;12.20;6.90;;;;;;;;;;766505;183;917530;-66
2022/04/18 08:09:41;;;;;;;13.80;7.73;;;;;;;;;;759270;183;1112145;-65
2022/04/18 08:12:11;;;;;;;11.12;6.85;;;;;;;;;;758947;183;920799;-67
2022/04/18 08:14:33;;;;;;;15.13;7.37;;;;;;;;;;759767;184;918490;-66
2022/04/18 08:16:59;;;;;;;10.80;6.90;;;;;;;;;;761006;184;920233;-65
2022/04/18 08:19:25;;;;;;;12.37;7.37;;;;;;;;;;756073;184;917868;-67
2022/04/18 08:21:50;;;;;;;8.33;5.70;;;;;;;;;;751369;184;918705;-66
2022/04/18 08:24:16;;;;;;;9.27;5.50;;;;;;;;;;763213;184;919269;-66
2022/04/18 08:26:45;;;;;;;8.20;5.43;;;;;;;;;;755336;184;911631;-66
2022/04/18 08:29:08;;;;;;;11.33;4.93;;;;;;;;;;752810;184;1022333;-64
2022/04/18 08:31:34;;;;;;;8.70;4.93;;;;;;;;;;761959;183;1020222;-62
2022/04/18 08:34:01;;;;;;;8.70;4.67;;;;;;;;;;754109;183;918923;-65
2022/04/18 08:36:27;;;;;;;6.13;4.50;;;;;;;;;;752654;184;1017375;-64
2022/04/18 08:38:52;;;;;;;7.40;4.93;;;;;;;;;;753768;184;920443;-65
2022/04/18 08:41:18;;;;;;;7.13;4.43;;;;;;;;;;765116;183;919693;-64
2022/04/18 08:43:44;;;;;;;8.73;5.00;;;;;;;;;;751481;185;919118;-64
2022/04/18 08:46:10;;;;;;;6.13;3.40;;;;;;;;;;751260;184;920300;-66
2022/04/18 08:53:39;;;;;;;37.13;12.57;;;;;;;;;;755776;182;920011;-66
2022/04/18 08:56:05;;;;;;;8.90;5.40;;;;;;;;;;756463;184;914278;-66
2022/04/18 08:58:31;;;;;;;7.30;5.30;;;;;;;;;;764375;184;918938;-65
2022/04/18 09:00:57;;;;;;;32.63;11.87;;;;;;;;;;758902;184;920601;-65
2022/04/18 09:03:22;;;;;;;12.33;6.70;;;;;;;;;;759367;184;913805;-65
2022/04/18 09:05:48;;;;;;;8.50;4.83;;;;;;;;;;765228;183;854101;-61
2022/04/18 09:08:14;;;;;;;5.72;4.47;;;;;;;;;;760803;183;918700;-62
2022/04/18 09:10:40;;;;;;;4.07;3.23;;;;;;;;;;763017;183;914416;-62
2022/04/18 09:13:06;;;;;;;6.43;5.30;;;;;;;;;;762735;184;915811;-64
2022/04/18 09:15:34;;;;;;;7.90;6.50;;;;;;;;;;761924;184;916685;-64
2022/04/18 09:18:05;;;;;;;8.20;5.80;;;;;;;;;;762287;183;1020232;-65
2022/04/18 09:20:31;;;;;;;8.47;5.77;;;;;;;;;;762838;183;920271;-65
2022/04/18 09:22:57;;;;;;;8.73;4.50;;;;;;;;;;754398;185;915303;-64
2022/04/18 09:25:23;;;;;;;7.70;5.60;;;;;;;;;;758008;184;914884;-66
2022/04/18 09:27:53;;;;;;;6.87;4.50;;;;;;;;;;749221;184;915897;-66
2022/04/18 09:30:19;;;;;;;6.10;4.93;;;;;;;;;;754386;183;1018453;-63
2022/04/18 09:32:50;;;;;;;6.43;4.80;;;;;;;;;;758741;183;911361;-63
2022/04/18 09:35:16;;;;;;;10.93;6.27;;;;;;;;;;755775;184;911258;-66
2022/04/18 09:37:42;;;;;;;7.25;5.35;;;;;;;;;;752342;184;1015008;-66
2022/04/18 09:40:09;;;;;;;6.43;4.83;;;;;;;;;;760828;183;943309;-64
2022/04/18 09:42:35;;;;;;;11.13;4.70;;;;;;;;;;758112;184;914030;-65
2022/04/18 09:45:00;;;;;;;6.83;4.87;;;;;;;;;;759828;183;907585;-65
2022/04/18 09:47:27;;;;;;;15.40;8.47;;;;;;;;;;753817;184;1017130;-66
2022/04/18 09:49:53;;;;;;;23.83;15.30;;;;;;;;;;760120;184;914925;-65
2022/04/18 09:52:19;;;;;;;13.97;7.87;;;;;;;;;;753227;184;918296;-66
2022/04/18 09:54:45;;;;;;;9.20;5.77;;;;;;;;;;756185;183;922036;-65
2022/04/18 09:57:11;;;;;;;7.67;5.50;;;;;;;;;;762510;183;918335;-67
2022/04/18 09:59:37;;;;;;;7.90;5.67;;;;;;;;;;759342;182;918256;-66
2022/04/18 10:02:03;;;;;;;7.67;5.27;;;;;;;;;;755754;183;915664;-67
2022/04/18 10:04:29;;;;;;;14.83;8.00;;;;;;;;;;763520;182;920237;-65
2022/04/18 10:06:55;;;;;;;21.50;11.90;;;;;;;;;;748532;186;914473;-66
2022/04/18 10:09:21;;;;;;;95.97;39.23;;;;;;;;;;753453;183;915477;-65
2022/04/18 10:11:46;;;;;;;10.80;6.80;;;;;;;;;;747197;186;914966;-66
2022/04/18 10:14:12;;;;;;;9.60;7.23;;;;;;;;;;753797;187;919906;-65
2022/04/18 10:16:38;;;;;;;7.90;5.57;;;;;;;;;;760964;183;913993;-65
2022/04/18 10:19:04;;;;;;;6.72;4.90;;;;;;;;;;748421;187;919101;-65
2022/04/18 10:21:30;;;;;;;7.90;5.03;;;;;;;;;;744937;186;914957;-65
2022/04/18 10:23:59;;;;;;;12.93;4.97;;;;;;;;;;752875;183;918918;-65
2022/04/18 10:26:26;;;;;;;12.00;9.30;;;;;;;;;;749387;183;920046;-66
2022/04/18 10:28:53;;;;;;;9.10;5.50;;;;;;;;;;744504;187;918996;-66
2022/04/18 10:31:19;;;;;;;7.90;5.03;;;;;;;;;;759260;183;918633;-67
2022/04/18 10:33:45;;;;;;;6.03;3.60;;;;;;;;;;753482;183;919682;-67
2022/04/18 10:36:12;;;;;;;7.30;6.10;;;;;;;;;;755481;180;914196;-65
2022/04/18 10:38:38;;;;;;;7.80;6.33;;;;;;;;;;763155;185;918952;-67
2022/04/18 10:43:41;;;;;;;11.00;8.20;;;;;;;;;;754092;184;917516;-67
2022/04/18 10:46:13;;;;;;;5.37;4.87;;;;;;;;;;754602;183;918019;-65
2022/04/18 10:48:39;;;;;;;8.90;6.20;;;;;;;;;;761099;184;918692;-65
2022/04/18 10:51:04;;;;;;;10.27;6.40;;;;;;;;;;749238;181;919392;-65
2022/04/18 10:53:34;;;;;;;8.27;5.57;;;;;;;;;;741708;186;920818;-67
2022/04/18 10:56:13;;;;;;;7.47;5.50;;;;;;;;;;750238;184;918726;-67
2022/04/18 10:58:39;;;;;;;17.83;14.90;;;;;;;;;;756226;183;935486;-66
2022/04/18 11:01:08;;;;;;;8.80;6.30;;;;;;;;;;759643;183;920687;-66
2022/04/18 11:03:38;;;;;;;9.50;5.37;;;;;;;;;;757253;184;1020946;-66
2022/04/18 11:06:04;;;;;;;7.03;5.57;;;;;;;;;;758934;184;913559;-67
2022/04/18 11:08:30;;;;;;;12.33;6.30;;;;;;;;;;762578;182;919033;-65
2022/04/18 11:11:05;;;;;;;7.77;5.10;;;;;;;;;;757285;182;915446;-66
2022/04/18 11:13:31;;;;;;;9.97;6.50;;;;;;;;;;758043;182;917154;-66
2022/04/18 11:16:17;;;;;;;9.40;6.23;;;;;;;;;;759715;182;921077;-66
2022/04/18 11:18:43;;;;;;;7.83;5.43;;;;;;;;;;753351;184;916153;-66
2022/04/18 11:21:09;;;;;;;7.43;5.50;;;;;;;;;;763253;184;628833;-67
2022/04/18 11:23:35;;;;;;;8.80;6.13;;;;;;;;;;750012;184;911385;-67
2022/04/18 11:26:01;;;;;;;9.57;7.00;;;;;;;;;;753099;184;918872;-66
2022/04/18 11:28:33;;;;;;;7.57;5.75;;;;;;;;;;749296;184;919273;-67
2022/04/18 11:31:00;;;;;;;11.03;6.40;;;;;;;;;;761269;183;919116;-68
2022/04/18 11:33:25;;;;;;;10.40;6.63;;;;;;;;;;757489;183;923920;-67
2022/04/18 11:35:51;;;;;;;9.63;6.80;;;;;;;;;;752530;184;917954;-66
2022/04/18 11:38:17;;;;;;;14.03;12.50;;;;;;;;;;752115;183;919491;-67
2022/04/18 11:40:44;;;;;;;13.97;7.97;;;;;;;;;;754105;184;919217;-66
2022/04/18 11:43:11;;;;;;;11.73;7.50;;;;;;;;;;756376;183;918177;-62
2022/04/18 11:45:36;;;;;;;12.10;6.83;;;;;;;;;;760758;184;918902;-65
2022/04/18 11:48:04;;;;;;;15.13;9.33;;;;;;;;;;760525;183;894793;-66
2022/04/18 11:50:29;;;;;;;9.77;6.60;;;;;;;;;;756101;183;919696;-65
2022/04/18 11:53:00;;;;;;;16.30;9.18;;;;;;;;;;755827;183;936076;-66
2022/04/18 11:55:26;;;;;;;10.37;6.93;;;;;;;;;;748352;184;1222528;-67
2022/04/18 11:57:51;;;;;;;10.13;7.07;;;;;;;;;;758410;184;1021453;-65
2022/04/18 12:08:11;;;;;;;13.40;7.80;;;;;;;;;;746349;184;1530218;-64
2022/04/18 12:10:37;;;;;;;10.07;5.63;;;;;;;;;;757988;184;933208;-62
2022/04/18 12:13:05;;;;;;;15.47;8.10;;;;;;;;;;759157;184;919635;-62
2022/04/18 12:15:30;;;;;;;11.60;7.10;;;;;;;;;;758038;184;918110;-67
2022/04/18 12:17:56;;;;;;;12.73;6.77;;;;;;;;;;751706;184;927564;-64
2022/04/18 12:20:22;;;;;;;12.80;7.70;;;;;;;;;;763701;181;919536;-61
2022/04/18 12:22:48;;;;;;;11.07;6.00;;;;;;;;;;759374;183;920145;-64
2022/04/18 12:25:19;;;;;;;12.17;7.13;;;;;;;;;;755263;182;928577;-63
2022/04/18 12:27:44;;;;;;;12.67;7.47;;;;;;;;;;759813;183;913769;-66
2022/04/18 12:30:10;;;;;;;12.23;6.83;;;;;;;;;;755978;183;884360;-65
2022/04/18 12:32:37;;;;;;;9.87;6.00;;;;;;;;;;755676;184;921173;-65
2022/04/18 12:35:02;;;;;;;10.57;6.30;;;;;;;;;;759144;183;960910;-64
2022/04/18 12:37:28;;;;;;;9.80;6.00;;;;;;;;;;752866;183;1025082;-64
2022/04/18 12:39:59;;;;;;;12.27;6.93;;;;;;;;;;760341;183;918164;-62
2022/04/18 12:42:25;;;;;;;10.43;6.60;;;;;;;;;;758896;183;619076;-62
2022/04/18 12:44:51;;;;;;;14.97;6.00;;;;;;;;;;760308;184;1020962;-62
2022/04/18 12:47:17;;;;;;;6.50;5.15;;;;;;;;;;749978;184;1518809;-61
2022/04/18 12:49:49;;;;;;;8.00;4.50;;;;;;;;;;753921;183;1206541;-59
2022/04/18 12:52:15;;;;;;;7.37;4.07;;;;;;;;;;751808;184;1400050;-60
2022/04/18 12:54:41;;;;;;;9.73;3.50;;;;;;;;;;759070;184;936195;-60
2022/04/18 12:57:07;;;;;;;8.60;5.00;;;;;;;;;;752999;184;920437;-64
2022/04/18 12:59:33;;;;;;;8.10;5.17;;;;;;;;;;754526;183;1018068;-62
2022/04/18 13:02:06;;;;;;;11.10;5.13;;;;;;;;;;763744;183;959982;-63
2022/04/18 13:04:32;;;;;;;6.50;5.07;;;;;;;;;;762885;183;986108;-63
2022/04/18 13:06:58;;;;;;;11.13;4.70;;;;;;;;;;750914;183;1545910;-61
2022/04/18 13:09:24;;;;;;;6.30;3.90;;;;;;;;;;753109;184;1429410;-64
2022/04/18 13:11:49;;;;;;;8.37;4.27;;;;;;;;;;765245;183;919127;-65
2022/04/18 13:14:15;;;;;;;9.70;4.33;;;;;;;;;;759382;183;1004101;-64
2022/04/18 13:16:42;;;;;;;4.13;3.53;;;;;;;;;;756747;184;1017159;-62
2022/04/18 13:19:10;;;;;;;17.30;9.30;;;;;;;;;;749881;184;2538680;-62
2022/04/18 13:21:35;;;;;;;9.80;4.20;;;;;;;;;;757465;184;945181;-64
2022/04/18 13:24:01;;;;;;;9.23;6.73;;;;;;;;;;750428;183;1121570;-60
2022/04/18 13:26:27;;;;;;;7.20;6.10;;;;;;;;;;757340;183;915174;-62
2022/04/18 13:28:53;;;;;;;10.23;6.50;;;;;;;;;;759241;183;914456;-61
2022/04/18 13:31:20;;;;;;;19.93;12.53;;;;;;;;;;756702;183;914344;-62
2022/04/18 13:33:45;;;;;;;9.80;6.50;;;;;;;;;;760389;183;909797;-64
2022/04/18 13:38:42;;;;;;;10.50;4.90;;;;;;;;;;762405;182;916379;-61
2022/04/18 13:41:08;;;;;;;10.10;4.77;;;;;;;;;;757125;183;911596;-60
2022/04/18 13:43:34;;;;;;;7.07;3.80;;;;;;;;;;761392;184;1132942;-63
2022/04/18 13:46:03;;;;;;;6.77;3.60;;;;;;;;;;751647;187;908003;-62
2022/04/18 13:48:26;;;;;;;4.93;3.37;;;;;;;;;;750227;183;905841;-60
2022/04/18 13:50:52;;;;;;;4.85;3.58;;;;;;;;;;748736;184;1019639;-64
2022/04/18 13:53:18;;;;;;;13.07;6.40;;;;;;;;;;762362;184;909910;-65
2022/04/18 13:55:44;;;;;;;6.40;3.80;;;;;;;;;;756456;184;920365;-63
2022/04/18 13:58:11;;;;;;;7.70;4.87;;;;;;;;;;756542;183;980029;-64
2022/04/18 14:00:35;;;;;;;6.87;4.53;;;;;;;;;;757015;183;936330;-62
2022/04/18 14:03:04;;;;;;;9.93;7.20;;;;;;;;;;756975;183;918224;-62
2022/04/18 14:05:28;;;;;;;14.02;10.23;;;;;;;;;;759010;183;919339;-63
2022/04/18 14:07:54;;;;;;;9.07;5.82;;;;;;;;;;755426;183;921836;-64
2022/04/18 14:10:21;;;;;;;6.97;5.70;;;;;;;;;;750500;184;917924;-62
2022/04/18 14:12:47;;;;;;;9.37;6.67;;;;;;;;;;758946;182;918763;-64
2022/04/18 14:20:21;;;;;;;13.23;7.43;;;;;;;;;;757312;183;1763622;-62
2022/04/18 14:22:46;;;;;;;6.90;4.63;;;;;;;;;;754898;183;1046988;-64
2022/04/18 14:25:14;;;;;;;13.88;5.05;;;;;;;;;;747471;184;1915261;-62
2022/04/18 14:27:41;;;;;;;13.67;4.47;;;;;;;;;;750300;183;2534322;-63
2022/04/18 14:30:13;;;;;;;5.53;3.70;;;;;;;;;;743007;183;2717961;-62
2022/04/18 14:32:39;;;;;;;5.97;4.50;;;;;;;;;;738957;184;2788854;-62
2022/04/18 14:35:05;;;;;;;40.05;22.27;;;;;;;;;;739424;183;2460731;-63
2022/04/18 14:37:36;;;;;;;8.77;4.80;;;;;;;;;;762407;184;1532461;-62
2022/04/18 14:40:05;;;;;;;9.30;3.85;;;;;;;;;;745521;183;2176774;-60
2022/04/18 14:42:34;;;;;;;21.23;10.70;;;;;;;;;;744201;182;2370762;-63